sensor_id;sensor_type;location;lat;lon;timestamp;P1;durP1;ratioP1;P2;durP2;ratioP2
40981;SDS011;26708;50.304;19.028;2022-10-16T00:04:45;17.45;;;9.43;;
40981;SDS011;26708;50.304;19.028;2022-10-16T00:07:46;15.20;;;8.30;;
40981;SDS011;26708;50.304;19.028;2022-10-16T00:10:46;14.70;;;8.35;;
40981;SDS011;26708;50.304;19.028;2022-10-16T00:13:48;20.63;;;7.78;;
40981;SDS011;26708;50.304;19.028;2022-10-16T00:16:50;12.07;;;7.38;;
40981;SDS011;26708;50.304;19.028;2022-10-16T00:19:51;14.50;;;7.97;;
40981;SDS011;26708;50.304;19.028;2022-10-16T00:22:52;12.35;;;7.43;;
40981;SDS011;26708;50.304;19.028;2022-10-16T00:25:54;14.63;;;7.88;;
40981;SDS011;26708;50.304;19.028;2022-10-16T00:28:57;13.00;;;7.40;;
40981;SDS011;26708;50.304;19.028;2022-10-16T00:31:58;14.27;;;7.82;;
40981;SDS011;26708;50.304;19.028;2022-10-16T00:34:59;11.15;;;7.18;;
40981;SDS011;26708;50.304;19.028;2022-10-16T00:38:00;14.98;;;6.90;;
40981;SDS011;26708;50.304;19.028;2022-10-16T00:41:02;12.63;;;6.85;;
40981;SDS011;26708;50.304;19.028;2022-10-16T00:44:04;13.35;;;7.40;;
40981;SDS011;26708;50.304;19.028;2022-10-16T00:47:43;14.55;;;6.85;;
40981;SDS011;26708;50.304;19.028;2022-10-16T00:50:50;13.00;;;7.03;;
40981;SDS011;26708;50.304;19.028;2022-10-16T00:53:54;13.13;;;7.50;;
40981;SDS011;26708;50.304;19.028;2022-10-16T00:56:58;14.45;;;7.35;;
40981;SDS011;26708;50.304;19.028;2022-10-16T01:00:03;12.82;;;8.00;;
40981;SDS011;26708;50.304;19.028;2022-10-16T01:03:22;13.55;;;7.13;;
40981;SDS011;26708;50.304;19.028;2022-10-16T01:06:32;14.25;;;6.97;;
40981;SDS011;26708;50.304;19.028;2022-10-16T01:10:17;18.05;;;8.38;;
40981;SDS011;26708;50.304;19.028;2022-10-16T01:13:37;14.77;;;7.65;;
40981;SDS011;26708;50.304;19.028;2022-10-16T01:16:52;16.98;;;7.55;;
40981;SDS011;26708;50.304;19.028;2022-10-16T01:20:01;11.85;;;7.43;;
40981;SDS011;26708;50.304;19.028;2022-10-16T01:32:45;16.08;;;8.40;;
40981;SDS011;26708;50.304;19.028;2022-10-16T01:35:59;19.35;;;8.10;;
40981;SDS011;26708;50.304;19.028;2022-10-16T01:39:06;12.95;;;8.05;;
40981;SDS011;26708;50.304;19.028;2022-10-16T01:42:15;14.13;;;7.85;;
40981;SDS011;26708;50.304;19.028;2022-10-16T01:45:21;15.27;;;8.57;;
40981;SDS011;26708;50.304;19.028;2022-10-16T01:48:22;13.70;;;8.18;;
40981;SDS011;26708;50.304;19.028;2022-10-16T01:51:24;13.45;;;8.30;;
40981;SDS011;26708;50.304;19.028;2022-10-16T01:54:27;11.93;;;8.07;;
40981;SDS011;26708;50.304;19.028;2022-10-16T01:57:31;14.32;;;8.32;;
40981;SDS011;26708;50.304;19.028;2022-10-16T02:00:34;15.38;;;7.93;;
40981;SDS011;26708;50.304;19.028;2022-10-16T02:03:38;14.43;;;8.10;;
40981;SDS011;26708;50.304;19.028;2022-10-16T02:06:43;17.75;;;8.50;;
40981;SDS011;26708;50.304;19.028;2022-10-16T02:09:44;18.55;;;10.10;;
40981;SDS011;26708;50.304;19.028;2022-10-16T02:12:46;20.45;;;10.00;;
40981;SDS011;26708;50.304;19.028;2022-10-16T02:15:51;19.60;;;10.40;;
40981;SDS011;26708;50.304;19.028;2022-10-16T02:18:55;18.92;;;10.30;;
40981;SDS011;26708;50.304;19.028;2022-10-16T02:21:56;20.95;;;10.68;;
40981;SDS011;26708;50.304;19.028;2022-10-16T02:25:17;18.42;;;10.35;;
40981;SDS011;26708;50.304;19.028;2022-10-16T02:28:27;14.38;;;8.75;;
40981;SDS011;26708;50.304;19.028;2022-10-16T02:31:35;13.48;;;8.95;;
40981;SDS011;26708;50.304;19.028;2022-10-16T02:34:41;17.45;;;9.57;;
40981;SDS011;26708;50.304;19.028;2022-10-16T02:37:43;15.10;;;9.15;;
40981;SDS011;26708;50.304;19.028;2022-10-16T02:40:47;20.85;;;10.00;;
40981;SDS011;26708;50.304;19.028;2022-10-16T02:43:48;13.88;;;9.57;;
40981;SDS011;26708;50.304;19.028;2022-10-16T02:46:50;17.67;;;11.00;;
40981;SDS011;26708;50.304;19.028;2022-10-16T02:49:51;20.00;;;11.32;;
40981;SDS011;26708;50.304;19.028;2022-10-16T02:52:52;22.88;;;13.07;;
40981;SDS011;26708;50.304;19.028;2022-10-16T02:55:52;23.73;;;11.75;;
40981;SDS011;26708;50.304;19.028;2022-10-16T02:58:53;27.48;;;14.60;;
40981;SDS011;26708;50.304;19.028;2022-10-16T03:01:54;27.92;;;15.75;;
40981;SDS011;26708;50.304;19.028;2022-10-16T03:04:55;25.42;;;14.73;;
40981;SDS011;26708;50.304;19.028;2022-10-16T03:07:56;30.00;;;16.02;;
40981;SDS011;26708;50.304;19.028;2022-10-16T03:10:58;26.25;;;15.10;;
40981;SDS011;26708;50.304;19.028;2022-10-16T03:14:00;25.73;;;14.65;;
40981;SDS011;26708;50.304;19.028;2022-10-16T03:17:01;22.20;;;14.10;;
40981;SDS011;26708;50.304;19.028;2022-10-16T03:20:03;16.92;;;10.98;;
40981;SDS011;26708;50.304;19.028;2022-10-16T03:23:06;17.55;;;10.40;;
40981;SDS011;26708;50.304;19.028;2022-10-16T03:26:08;15.90;;;10.80;;
40981;SDS011;26708;50.304;19.028;2022-10-16T03:29:09;19.88;;;11.27;;
40981;SDS011;26708;50.304;19.028;2022-10-16T03:32:10;16.00;;;9.95;;
40981;SDS011;26708;50.304;19.028;2022-10-16T03:35:11;19.88;;;10.02;;
40981;SDS011;26708;50.304;19.028;2022-10-16T03:38:11;20.05;;;10.77;;
40981;SDS011;26708;50.304;19.028;2022-10-16T03:41:12;19.48;;;10.30;;
40981;SDS011;26708;50.304;19.028;2022-10-16T03:44:13;34.10;;;13.88;;
40981;SDS011;26708;50.304;19.028;2022-10-16T03:47:14;27.38;;;13.13;;
40981;SDS011;26708;50.304;19.028;2022-10-16T03:50:15;19.88;;;10.35;;
40981;SDS011;26708;50.304;19.028;2022-10-16T03:53:16;17.98;;;10.15;;
40981;SDS011;26708;50.304;19.028;2022-10-16T03:56:17;17.33;;;10.00;;
40981;SDS011;26708;50.304;19.028;2022-10-16T03:59:18;17.35;;;10.38;;
40981;SDS011;26708;50.304;19.028;2022-10-16T04:02:19;21.70;;;11.00;;
40981;SDS011;26708;50.304;19.028;2022-10-16T04:05:20;19.30;;;10.75;;
40981;SDS011;26708;50.304;19.028;2022-10-16T04:08:21;19.00;;;9.82;;
40981;SDS011;26708;50.304;19.028;2022-10-16T04:11:23;20.08;;;11.10;;
40981;SDS011;26708;50.304;19.028;2022-10-16T04:14:24;16.23;;;10.50;;
40981;SDS011;26708;50.304;19.028;2022-10-16T04:17:25;19.30;;;9.88;;
40981;SDS011;26708;50.304;19.028;2022-10-16T04:20:26;16.02;;;10.40;;
40981;SDS011;26708;50.304;19.028;2022-10-16T04:23:27;18.67;;;10.68;;
40981;SDS011;26708;50.304;19.028;2022-10-16T04:26:28;24.42;;;12.85;;
40981;SDS011;26708;50.304;19.028;2022-10-16T04:29:29;21.75;;;13.18;;
40981;SDS011;26708;50.304;19.028;2022-10-16T04:32:30;19.92;;;11.32;;
40981;SDS011;26708;50.304;19.028;2022-10-16T04:35:33;23.27;;;12.13;;
40981;SDS011;26708;50.304;19.028;2022-10-16T04:38:36;26.77;;;12.10;;
40981;SDS011;26708;50.304;19.028;2022-10-16T04:41:40;21.00;;;11.45;;
40981;SDS011;26708;50.304;19.028;2022-10-16T04:44:41;22.65;;;12.75;;
40981;SDS011;26708;50.304;19.028;2022-10-16T04:47:42;27.23;;;14.32;;
40981;SDS011;26708;50.304;19.028;2022-10-16T04:50:42;23.42;;;12.13;;
40981;SDS011;26708;50.304;19.028;2022-10-16T04:53:43;19.98;;;11.57;;
40981;SDS011;26708;50.304;19.028;2022-10-16T04:56:44;22.17;;;12.35;;
40981;SDS011;26708;50.304;19.028;2022-10-16T04:59:47;19.85;;;11.48;;
40981;SDS011;26708;50.304;19.028;2022-10-16T05:02:51;16.80;;;10.38;;
40981;SDS011;26708;50.304;19.028;2022-10-16T05:05:52;24.88;;;11.23;;
40981;SDS011;26708;50.304;19.028;2022-10-16T05:08:53;18.10;;;10.40;;
40981;SDS011;26708;50.304;19.028;2022-10-16T05:11:54;20.63;;;11.15;;
40981;SDS011;26708;50.304;19.028;2022-10-16T05:14:55;19.38;;;11.73;;
40981;SDS011;26708;50.304;19.028;2022-10-16T05:17:58;21.65;;;11.57;;
40981;SDS011;26708;50.304;19.028;2022-10-16T05:20:59;24.98;;;11.63;;
40981;SDS011;26708;50.304;19.028;2022-10-16T05:24:00;19.98;;;11.25;;
40981;SDS011;26708;50.304;19.028;2022-10-16T05:27:01;19.98;;;10.93;;
40981;SDS011;26708;50.304;19.028;2022-10-16T05:30:02;19.55;;;11.52;;
40981;SDS011;26708;50.304;19.028;2022-10-16T05:33:03;21.45;;;12.15;;
40981;SDS011;26708;50.304;19.028;2022-10-16T05:36:05;17.38;;;11.70;;
40981;SDS011;26708;50.304;19.028;2022-10-16T05:39:09;20.87;;;11.17;;
40981;SDS011;26708;50.304;19.028;2022-10-16T05:42:10;18.98;;;10.93;;
40981;SDS011;26708;50.304;19.028;2022-10-16T05:45:10;26.08;;;12.85;;
40981;SDS011;26708;50.304;19.028;2022-10-16T05:48:12;23.60;;;12.25;;
40981;SDS011;26708;50.304;19.028;2022-10-16T05:51:13;19.38;;;11.13;;
40981;SDS011;26708;50.304;19.028;2022-10-16T05:54:14;19.23;;;11.05;;
40981;SDS011;26708;50.304;19.028;2022-10-16T05:57:15;28.67;;;14.63;;
40981;SDS011;26708;50.304;19.028;2022-10-16T06:00:16;26.38;;;15.23;;
40981;SDS011;26708;50.304;19.028;2022-10-16T06:03:16;21.10;;;12.25;;
40981;SDS011;26708;50.304;19.028;2022-10-16T06:06:18;19.33;;;11.40;;
40981;SDS011;26708;50.304;19.028;2022-10-16T06:09:20;18.17;;;10.65;;
40981;SDS011;26708;50.304;19.028;2022-10-16T06:12:21;26.92;;;11.93;;
40981;SDS011;26708;50.304;19.028;2022-10-16T06:15:22;40.47;;;19.48;;
40981;SDS011;26708;50.304;19.028;2022-10-16T06:18:23;24.60;;;13.77;;
40981;SDS011;26708;50.304;19.028;2022-10-16T06:21:25;20.02;;;12.25;;
40981;SDS011;26708;50.304;19.028;2022-10-16T06:24:27;19.92;;;11.90;;
40981;SDS011;26708;50.304;19.028;2022-10-16T06:27:28;26.85;;;12.93;;
40981;SDS011;26708;50.304;19.028;2022-10-16T06:30:29;35.65;;;17.60;;
40981;SDS011;26708;50.304;19.028;2022-10-16T06:33:29;34.42;;;19.33;;
40981;SDS011;26708;50.304;19.028;2022-10-16T06:36:31;31.75;;;17.75;;
40981;SDS011;26708;50.304;19.028;2022-10-16T06:39:31;34.30;;;18.83;;
40981;SDS011;26708;50.304;19.028;2022-10-16T06:42:32;32.33;;;18.90;;
40981;SDS011;26708;50.304;19.028;2022-10-16T06:45:33;31.35;;;16.02;;
40981;SDS011;26708;50.304;19.028;2022-10-16T06:48:34;28.92;;;16.02;;
40981;SDS011;26708;50.304;19.028;2022-10-16T06:51:35;25.48;;;14.75;;
40981;SDS011;26708;50.304;19.028;2022-10-16T06:54:40;30.33;;;17.35;;
40981;SDS011;26708;50.304;19.028;2022-10-16T06:57:41;39.20;;;20.73;;
40981;SDS011;26708;50.304;19.028;2022-10-16T07:00:42;40.72;;;19.05;;
40981;SDS011;26708;50.304;19.028;2022-10-16T07:03:44;45.70;;;21.92;;
40981;SDS011;26708;50.304;19.028;2022-10-16T07:06:45;37.30;;;19.40;;
40981;SDS011;26708;50.304;19.028;2022-10-16T07:09:46;42.05;;;21.42;;
40981;SDS011;26708;50.304;19.028;2022-10-16T07:12:47;36.03;;;19.27;;
40981;SDS011;26708;50.304;19.028;2022-10-16T07:15:47;30.42;;;14.77;;
40981;SDS011;26708;50.304;19.028;2022-10-16T07:18:48;17.58;;;9.82;;
40981;SDS011;26708;50.304;19.028;2022-10-16T07:21:49;14.52;;;8.30;;
40981;SDS011;26708;50.304;19.028;2022-10-16T07:24:50;12.88;;;7.57;;
40981;SDS011;26708;50.304;19.028;2022-10-16T07:27:51;11.65;;;7.10;;
40981;SDS011;26708;50.304;19.028;2022-10-16T07:30:53;13.73;;;7.43;;
40981;SDS011;26708;50.304;19.028;2022-10-16T07:33:53;13.65;;;6.72;;
40981;SDS011;26708;50.304;19.028;2022-10-16T07:36:54;13.70;;;6.88;;
40981;SDS011;26708;50.304;19.028;2022-10-16T07:39:55;13.32;;;7.22;;
40981;SDS011;26708;50.304;19.028;2022-10-16T07:42:56;12.00;;;7.22;;
40981;SDS011;26708;50.304;19.028;2022-10-16T07:45:57;12.82;;;7.32;;
40981;SDS011;26708;50.304;19.028;2022-10-16T07:48:58;14.75;;;7.70;;
40981;SDS011;26708;50.304;19.028;2022-10-16T07:51:59;11.00;;;7.13;;
40981;SDS011;26708;50.304;19.028;2022-10-16T07:54:59;12.82;;;7.18;;
40981;SDS011;26708;50.304;19.028;2022-10-16T07:58:00;11.15;;;6.45;;
40981;SDS011;26708;50.304;19.028;2022-10-16T08:01:03;14.13;;;6.43;;
40981;SDS011;26708;50.304;19.028;2022-10-16T08:04:08;11.63;;;6.25;;
40981;SDS011;26708;50.304;19.028;2022-10-16T08:07:09;12.30;;;6.82;;
40981;SDS011;26708;50.304;19.028;2022-10-16T08:10:17;11.07;;;6.72;;
40981;SDS011;26708;50.304;19.028;2022-10-16T08:13:20;12.85;;;6.40;;
40981;SDS011;26708;50.304;19.028;2022-10-16T08:16:21;10.05;;;5.95;;
40981;SDS011;26708;50.304;19.028;2022-10-16T08:19:21;12.52;;;5.43;;
40981;SDS011;26708;50.304;19.028;2022-10-16T08:22:22;8.25;;;5.25;;
40981;SDS011;26708;50.304;19.028;2022-10-16T08:25:23;9.45;;;6.40;;
40981;SDS011;26708;50.304;19.028;2022-10-16T08:28:26;11.35;;;5.38;;
40981;SDS011;26708;50.304;19.028;2022-10-16T08:31:26;8.38;;;5.28;;
40981;SDS011;26708;50.304;19.028;2022-10-16T08:34:27;11.60;;;5.55;;
40981;SDS011;26708;50.304;19.028;2022-10-16T08:37:31;8.45;;;5.30;;
40981;SDS011;26708;50.304;19.028;2022-10-16T08:40:33;12.98;;;5.15;;
40981;SDS011;26708;50.304;19.028;2022-10-16T08:46:52;9.32;;;5.35;;
40981;SDS011;26708;50.304;19.028;2022-10-16T08:49:58;12.05;;;5.30;;
40981;SDS011;26708;50.304;19.028;2022-10-16T08:53:03;12.38;;;5.50;;
40981;SDS011;26708;50.304;19.028;2022-10-16T08:56:05;8.73;;;5.95;;
40981;SDS011;26708;50.304;19.028;2022-10-16T08:59:06;10.52;;;5.20;;
40981;SDS011;26708;50.304;19.028;2022-10-16T09:02:34;7.15;;;4.57;;
40981;SDS011;26708;50.304;19.028;2022-10-16T09:12:55;8.57;;;5.20;;
40981;SDS011;26708;50.304;19.028;2022-10-16T09:16:28;7.97;;;5.25;;
40981;SDS011;26708;50.304;19.028;2022-10-16T09:19:36;16.20;;;5.90;;
40981;SDS011;26708;50.304;19.028;2022-10-16T09:22:42;9.45;;;5.32;;
40981;SDS011;26708;50.304;19.028;2022-10-16T09:25:44;9.52;;;5.47;;
40981;SDS011;26708;50.304;19.028;2022-10-16T09:28:48;8.13;;;5.35;;
40981;SDS011;26708;50.304;19.028;2022-10-16T09:31:48;9.30;;;6.03;;
40981;SDS011;26708;50.304;19.028;2022-10-16T09:34:50;11.05;;;6.40;;
40981;SDS011;26708;50.304;19.028;2022-10-16T09:37:55;13.05;;;6.35;;
40981;SDS011;26708;50.304;19.028;2022-10-16T09:41:00;9.43;;;5.45;;
40981;SDS011;26708;50.304;19.028;2022-10-16T09:44:02;11.80;;;6.15;;
40981;SDS011;26708;50.304;19.028;2022-10-16T09:47:17;10.45;;;5.65;;
40981;SDS011;26708;50.304;19.028;2022-10-16T09:50:27;12.75;;;5.63;;
40981;SDS011;26708;50.304;19.028;2022-10-16T09:53:37;9.73;;;6.40;;
40981;SDS011;26708;50.304;19.028;2022-10-16T09:56:40;9.85;;;6.05;;
40981;SDS011;26708;50.304;19.028;2022-10-16T09:59:48;14.80;;;5.85;;
40981;SDS011;26708;50.304;19.028;2022-10-16T10:02:52;7.75;;;5.20;;
40981;SDS011;26708;50.304;19.028;2022-10-16T10:05:54;11.48;;;5.50;;
40981;SDS011;26708;50.304;19.028;2022-10-16T10:08:56;8.77;;;5.53;;
40981;SDS011;26708;50.304;19.028;2022-10-16T10:11:59;15.80;;;5.82;;
40981;SDS011;26708;50.304;19.028;2022-10-16T10:18:21;12.20;;;5.63;;
40981;SDS011;26708;50.304;19.028;2022-10-16T10:21:24;7.88;;;5.30;;
40981;SDS011;26708;50.304;19.028;2022-10-16T10:24:25;14.63;;;5.28;;
40981;SDS011;26708;50.304;19.028;2022-10-16T10:30:51;8.77;;;4.93;;
40981;SDS011;26708;50.304;19.028;2022-10-16T10:41:06;7.78;;;5.00;;
40981;SDS011;26708;50.304;19.028;2022-10-16T10:47:59;6.82;;;4.80;;
40981;SDS011;26708;50.304;19.028;2022-10-16T10:51:36;11.70;;;4.85;;
40981;SDS011;26708;50.304;19.028;2022-10-16T11:09:30;8.02;;;4.38;;
40981;SDS011;26708;50.304;19.028;2022-10-16T11:12:37;11.93;;;4.93;;
40981;SDS011;26708;50.304;19.028;2022-10-16T11:15:43;7.05;;;4.47;;
40981;SDS011;26708;50.304;19.028;2022-10-16T11:18:49;11.15;;;4.97;;
40981;SDS011;26708;50.304;19.028;2022-10-16T11:25:31;8.82;;;5.05;;
40981;SDS011;26708;50.304;19.028;2022-10-16T11:28:40;8.02;;;4.63;;
40981;SDS011;26708;50.304;19.028;2022-10-16T11:32:00;6.70;;;4.68;;
40981;SDS011;26708;50.304;19.028;2022-10-16T11:35:11;10.38;;;4.47;;
40981;SDS011;26708;50.304;19.028;2022-10-16T11:41:42;10.20;;;5.22;;
40981;SDS011;26708;50.304;19.028;2022-10-16T11:51:45;6.30;;;4.68;;
40981;SDS011;26708;50.304;19.028;2022-10-16T11:58:32;8.18;;;4.72;;
40981;SDS011;26708;50.304;19.028;2022-10-16T12:05:27;9.10;;;4.75;;
40981;SDS011;26708;50.304;19.028;2022-10-16T12:08:33;9.82;;;5.45;;
40981;SDS011;26708;50.304;19.028;2022-10-16T12:11:37;7.40;;;4.70;;
40981;SDS011;26708;50.304;19.028;2022-10-16T12:14:39;8.65;;;4.97;;
40981;SDS011;26708;50.304;19.028;2022-10-16T12:17:40;8.48;;;5.88;;
40981;SDS011;26708;50.304;19.028;2022-10-16T12:20:41;7.15;;;4.95;;
40981;SDS011;26708;50.304;19.028;2022-10-16T12:23:47;7.18;;;4.90;;
40981;SDS011;26708;50.304;19.028;2022-10-16T12:26:50;8.90;;;5.40;;
40981;SDS011;26708;50.304;19.028;2022-10-16T12:29:56;8.00;;;5.00;;
40981;SDS011;26708;50.304;19.028;2022-10-16T12:33:04;10.80;;;4.93;;
40981;SDS011;26708;50.304;19.028;2022-10-16T12:36:10;8.38;;;5.15;;
40981;SDS011;26708;50.304;19.028;2022-10-16T12:39:22;9.27;;;5.50;;
40981;SDS011;26708;50.304;19.028;2022-10-16T12:45:30;9.88;;;4.78;;
40981;SDS011;26708;50.304;19.028;2022-10-16T12:48:32;14.63;;;6.57;;
40981;SDS011;26708;50.304;19.028;2022-10-16T12:51:35;10.32;;;5.88;;
40981;SDS011;26708;50.304;19.028;2022-10-16T12:54:37;9.68;;;5.72;;
40981;SDS011;26708;50.304;19.028;2022-10-16T13:01:12;11.02;;;6.43;;
40981;SDS011;26708;50.304;19.028;2022-10-16T13:18:22;15.32;;;6.82;;
40981;SDS011;26708;50.304;19.028;2022-10-16T13:21:33;13.98;;;7.88;;
40981;SDS011;26708;50.304;19.028;2022-10-16T13:28:03;12.55;;;6.50;;
40981;SDS011;26708;50.304;19.028;2022-10-16T13:31:13;12.17;;;7.20;;
40981;SDS011;26708;50.304;19.028;2022-10-16T13:34:19;11.93;;;6.55;;
40981;SDS011;26708;50.304;19.028;2022-10-16T13:40:25;10.52;;;5.68;;
40981;SDS011;26708;50.304;19.028;2022-10-16T13:43:39;10.35;;;6.30;;
40981;SDS011;26708;50.304;19.028;2022-10-16T13:46:41;13.68;;;7.78;;
40981;SDS011;26708;50.304;19.028;2022-10-16T13:49:42;11.77;;;6.20;;
40981;SDS011;26708;50.304;19.028;2022-10-16T13:52:43;13.32;;;5.82;;
40981;SDS011;26708;50.304;19.028;2022-10-16T13:55:43;10.25;;;5.68;;
40981;SDS011;26708;50.304;19.028;2022-10-16T13:58:58;9.05;;;6.18;;
40981;SDS011;26708;50.304;19.028;2022-10-16T14:05:31;9.25;;;5.43;;
40981;SDS011;26708;50.304;19.028;2022-10-16T14:08:32;8.98;;;5.47;;
40981;SDS011;26708;50.304;19.028;2022-10-16T14:11:34;8.85;;;6.50;;
40981;SDS011;26708;50.304;19.028;2022-10-16T14:14:48;10.00;;;6.32;;
40981;SDS011;26708;50.304;19.028;2022-10-16T14:17:53;10.32;;;5.88;;
40981;SDS011;26708;50.304;19.028;2022-10-16T14:20:55;11.60;;;5.88;;
40981;SDS011;26708;50.304;19.028;2022-10-16T14:27:35;12.45;;;5.90;;
40981;SDS011;26708;50.304;19.028;2022-10-16T14:30:37;9.57;;;5.70;;
40981;SDS011;26708;50.304;19.028;2022-10-16T14:33:58;13.02;;;6.15;;
40981;SDS011;26708;50.304;19.028;2022-10-16T14:37:00;9.48;;;5.72;;
40981;SDS011;26708;50.304;19.028;2022-10-16T14:43:20;15.85;;;10.75;;
40981;SDS011;26708;50.304;19.028;2022-10-16T14:46:36;14.90;;;8.23;;
40981;SDS011;26708;50.304;19.028;2022-10-16T14:49:40;11.20;;;7.72;;
40981;SDS011;26708;50.304;19.028;2022-10-16T14:52:42;14.68;;;6.57;;
40981;SDS011;26708;50.304;19.028;2022-10-16T14:55:43;14.65;;;7.18;;
40981;SDS011;26708;50.304;19.028;2022-10-16T14:58:45;10.65;;;6.80;;
40981;SDS011;26708;50.304;19.028;2022-10-16T15:01:46;16.65;;;7.35;;
40981;SDS011;26708;50.304;19.028;2022-10-16T15:04:47;14.52;;;7.78;;
40981;SDS011;26708;50.304;19.028;2022-10-16T15:07:49;12.88;;;7.47;;
40981;SDS011;26708;50.304;19.028;2022-10-16T15:10:50;12.07;;;7.00;;
40981;SDS011;26708;50.304;19.028;2022-10-16T15:13:51;13.38;;;6.50;;
40981;SDS011;26708;50.304;19.028;2022-10-16T15:16:52;9.85;;;6.55;;
40981;SDS011;26708;50.304;19.028;2022-10-16T15:19:53;10.80;;;7.32;;
40981;SDS011;26708;50.304;19.028;2022-10-16T15:22:53;13.60;;;6.90;;
40981;SDS011;26708;50.304;19.028;2022-10-16T15:25:55;14.00;;;8.60;;
40981;SDS011;26708;50.304;19.028;2022-10-16T15:28:56;18.65;;;9.55;;
40981;SDS011;26708;50.304;19.028;2022-10-16T15:31:58;20.90;;;9.90;;
40981;SDS011;26708;50.304;19.028;2022-10-16T15:34:58;16.95;;;8.90;;
40981;SDS011;26708;50.304;19.028;2022-10-16T15:37:59;21.30;;;11.38;;
40981;SDS011;26708;50.304;19.028;2022-10-16T15:41:00;17.30;;;8.30;;
40981;SDS011;26708;50.304;19.028;2022-10-16T15:44:01;18.33;;;8.55;;
40981;SDS011;26708;50.304;19.028;2022-10-16T15:47:01;17.58;;;8.57;;
40981;SDS011;26708;50.304;19.028;2022-10-16T15:50:03;19.00;;;8.25;;
40981;SDS011;26708;50.304;19.028;2022-10-16T15:53:04;11.00;;;7.38;;
40981;SDS011;26708;50.304;19.028;2022-10-16T15:56:06;14.88;;;7.85;;
40981;SDS011;26708;50.304;19.028;2022-10-16T15:59:08;17.58;;;7.80;;
40981;SDS011;26708;50.304;19.028;2022-10-16T16:02:09;14.32;;;9.00;;
40981;SDS011;26708;50.304;19.028;2022-10-16T16:05:10;27.15;;;13.38;;
40981;SDS011;26708;50.304;19.028;2022-10-16T16:08:11;24.45;;;12.50;;
40981;SDS011;26708;50.304;19.028;2022-10-16T16:11:13;20.88;;;11.75;;
40981;SDS011;26708;50.304;19.028;2022-10-16T16:14:15;22.60;;;11.18;;
40981;SDS011;26708;50.304;19.028;2022-10-16T16:17:16;17.95;;;10.65;;
40981;SDS011;26708;50.304;19.028;2022-10-16T16:20:18;18.75;;;10.27;;
40981;SDS011;26708;50.304;19.028;2022-10-16T16:23:19;13.20;;;8.77;;
40981;SDS011;26708;50.304;19.028;2022-10-16T16:26:27;15.98;;;10.00;;
40981;SDS011;26708;50.304;19.028;2022-10-16T16:29:34;17.60;;;10.35;;
40981;SDS011;26708;50.304;19.028;2022-10-16T16:32:35;15.75;;;10.13;;
40981;SDS011;26708;50.304;19.028;2022-10-16T16:35:37;16.65;;;9.98;;
40981;SDS011;26708;50.304;19.028;2022-10-16T16:38:37;18.17;;;10.20;;
40981;SDS011;26708;50.304;19.028;2022-10-16T16:41:38;20.63;;;10.48;;
40981;SDS011;26708;50.304;19.028;2022-10-16T16:48:45;18.52;;;11.13;;
40981;SDS011;26708;50.304;19.028;2022-10-16T16:51:46;20.92;;;11.60;;
40981;SDS011;26708;50.304;19.028;2022-10-16T16:54:47;21.77;;;11.88;;
40981;SDS011;26708;50.304;19.028;2022-10-16T16:57:51;22.27;;;12.80;;
40981;SDS011;26708;50.304;19.028;2022-10-16T17:00:52;25.38;;;13.63;;
40981;SDS011;26708;50.304;19.028;2022-10-16T17:03:55;19.33;;;12.25;;
40981;SDS011;26708;50.304;19.028;2022-10-16T17:06:57;20.02;;;11.98;;
40981;SDS011;26708;50.304;19.028;2022-10-16T17:09:58;18.98;;;11.35;;
40981;SDS011;26708;50.304;19.028;2022-10-16T17:12:58;24.73;;;13.18;;
40981;SDS011;26708;50.304;19.028;2022-10-16T17:16:00;26.92;;;14.85;;
40981;SDS011;26708;50.304;19.028;2022-10-16T17:19:05;23.35;;;14.27;;
40981;SDS011;26708;50.304;19.028;2022-10-16T17:22:09;27.75;;;13.95;;
40981;SDS011;26708;50.304;19.028;2022-10-16T17:25:09;23.63;;;14.23;;
40981;SDS011;26708;50.304;19.028;2022-10-16T17:28:10;24.92;;;14.30;;
40981;SDS011;26708;50.304;19.028;2022-10-16T17:31:14;21.27;;;13.43;;
40981;SDS011;26708;50.304;19.028;2022-10-16T17:34:17;26.92;;;12.95;;
40981;SDS011;26708;50.304;19.028;2022-10-16T17:37:18;24.73;;;13.77;;
40981;SDS011;26708;50.304;19.028;2022-10-16T17:40:19;30.77;;;14.57;;
40981;SDS011;26708;50.304;19.028;2022-10-16T17:43:20;27.58;;;13.77;;
40981;SDS011;26708;50.304;19.028;2022-10-16T17:46:22;30.63;;;15.50;;
40981;SDS011;26708;50.304;19.028;2022-10-16T17:49:23;26.90;;;14.43;;
40981;SDS011;26708;50.304;19.028;2022-10-16T17:52:24;28.67;;;15.05;;
40981;SDS011;26708;50.304;19.028;2022-10-16T17:55:25;28.60;;;14.80;;
40981;SDS011;26708;50.304;19.028;2022-10-16T17:58:29;28.15;;;14.52;;
40981;SDS011;26708;50.304;19.028;2022-10-16T18:01:34;26.92;;;13.82;;
40981;SDS011;26708;50.304;19.028;2022-10-16T18:04:36;25.33;;;14.40;;
40981;SDS011;26708;50.304;19.028;2022-10-16T18:07:37;21.20;;;12.65;;
40981;SDS011;26708;50.304;19.028;2022-10-16T18:10:45;25.02;;;12.73;;
40981;SDS011;26708;50.304;19.028;2022-10-16T18:13:47;22.77;;;13.10;;
40981;SDS011;26708;50.304;19.028;2022-10-16T18:16:52;22.00;;;13.27;;
40981;SDS011;26708;50.304;19.028;2022-10-16T18:19:53;25.55;;;13.50;;
40981;SDS011;26708;50.304;19.028;2022-10-16T18:22:55;26.83;;;14.05;;
40981;SDS011;26708;50.304;19.028;2022-10-16T18:25:56;23.45;;;14.18;;
40981;SDS011;26708;50.304;19.028;2022-10-16T18:29:04;29.02;;;14.02;;
40981;SDS011;26708;50.304;19.028;2022-10-16T18:32:05;31.10;;;14.48;;
40981;SDS011;26708;50.304;19.028;2022-10-16T18:35:06;29.13;;;15.35;;
40981;SDS011;26708;50.304;19.028;2022-10-16T18:38:07;27.45;;;14.77;;
40981;SDS011;26708;50.304;19.028;2022-10-16T18:41:08;24.05;;;13.73;;
40981;SDS011;26708;50.304;19.028;2022-10-16T18:44:09;21.27;;;12.82;;
40981;SDS011;26708;50.304;19.028;2022-10-16T18:47:11;29.45;;;15.02;;
40981;SDS011;26708;50.304;19.028;2022-10-16T18:50:11;37.60;;;19.13;;
40981;SDS011;26708;50.304;19.028;2022-10-16T18:53:12;28.13;;;15.80;;
40981;SDS011;26708;50.304;19.028;2022-10-16T18:56:14;28.42;;;14.75;;
40981;SDS011;26708;50.304;19.028;2022-10-16T18:59:17;22.98;;;13.52;;
40981;SDS011;26708;50.304;19.028;2022-10-16T19:02:19;24.60;;;12.98;;
40981;SDS011;26708;50.304;19.028;2022-10-16T19:05:19;21.85;;;11.63;;
40981;SDS011;26708;50.304;19.028;2022-10-16T19:08:20;21.52;;;12.48;;
40981;SDS011;26708;50.304;19.028;2022-10-16T19:11:27;21.65;;;13.82;;
40981;SDS011;26708;50.304;19.028;2022-10-16T19:14:29;22.33;;;11.93;;
40981;SDS011;26708;50.304;19.028;2022-10-16T19:17:32;23.38;;;11.80;;
40981;SDS011;26708;50.304;19.028;2022-10-16T19:20:32;18.63;;;11.60;;
40981;SDS011;26708;50.304;19.028;2022-10-16T19:23:34;18.13;;;11.05;;
40981;SDS011;26708;50.304;19.028;2022-10-16T19:26:37;17.55;;;11.45;;
40981;SDS011;26708;50.304;19.028;2022-10-16T19:29:38;17.58;;;10.68;;
40981;SDS011;26708;50.304;19.028;2022-10-16T19:32:39;21.40;;;11.52;;
40981;SDS011;26708;50.304;19.028;2022-10-16T19:35:40;21.55;;;10.77;;
40981;SDS011;26708;50.304;19.028;2022-10-16T19:38:41;22.45;;;11.20;;
40981;SDS011;26708;50.304;19.028;2022-10-16T19:41:43;21.90;;;11.45;;
40981;SDS011;26708;50.304;19.028;2022-10-16T19:44:47;16.55;;;11.00;;